createdAt,value
2022-12-20T00:00:20.955Z,81
2022-12-20T00:01:28.097Z,81
2022-12-20T00:02:35.373Z,81
2022-12-20T00:03:42.281Z,81
2022-12-20T00:04:49.322Z,81
2022-12-20T00:05:56.085Z,81
2022-12-20T00:07:03.097Z,81
2022-12-20T00:08:10.161Z,81
2022-12-20T00:09:17.353Z,81
2022-12-20T00:10:24.379Z,80
2022-12-20T00:11:31.476Z,80
2022-12-20T00:12:38.066Z,80
2022-12-20T00:14:52.333Z,80
2022-12-20T00:15:59.333Z,80
2022-12-20T00:17:06.009Z,80
2022-12-20T00:18:13.227Z,80
2022-12-20T00:19:20.217Z,80
2022-12-20T00:20:27.357Z,79
2022-12-20T00:21:34.404Z,79
2022-12-20T00:22:40.967Z,79
2022-12-20T00:24:55.236Z,79
2022-12-20T00:26:02.344Z,79
2022-12-20T00:27:09.350Z,78
2022-12-20T00:28:16.038Z,78
2022-12-20T00:29:23.147Z,78
2022-12-20T00:30:30.179Z,78
2022-12-20T00:31:37.367Z,78
2022-12-20T00:32:44.424Z,78
2022-12-20T00:33:51.021Z,78
2022-12-20T00:34:58.199Z,78
2022-12-20T00:36:05.266Z,78
2022-12-20T00:37:12.333Z,78
2022-12-20T00:38:19.375Z,78
2022-12-20T00:39:26.050Z,78
2022-12-20T00:40:33.128Z,78
2022-12-20T00:41:40.292Z,78
2022-12-20T00:42:47.292Z,78
2022-12-20T00:43:54.451Z,78
2022-12-20T00:45:00.995Z,78
2022-12-20T00:46:08.063Z,78
2022-12-20T00:47:15.337Z,78
2022-12-20T00:48:22.348Z,77
2022-12-20T00:49:29.431Z,77
2022-12-20T00:50:36.105Z,77
2022-12-20T00:51:43.192Z,77
2022-12-20T00:52:50.213Z,77
2022-12-20T00:53:57.355Z,77
2022-12-20T00:55:04.468Z,77
2022-12-20T00:56:11.097Z,76
2022-12-20T00:57:18.191Z,77
2022-12-20T00:58:25.282Z,76
2022-12-20T00:59:32.338Z,76
2022-12-20T01:00:39.496Z,76
2022-12-20T01:01:46.242Z,76
2022-12-20T01:04:00.266Z,76
2022-12-20T01:06:14.786Z,75
2022-12-20T01:07:21.074Z,75
2022-12-20T01:08:28.133Z,75
2022-12-20T01:09:35.232Z,75
2022-12-20T01:10:42.376Z,75
2022-12-20T01:11:49.459Z,75
2022-12-20T01:12:56.061Z,75
2022-12-20T01:14:03.137Z,75
2022-12-20T01:15:10.272Z,75
2022-12-20T01:16:17.395Z,75
2022-12-20T01:18:31.114Z,75
2022-12-20T01:19:38.161Z,75
2022-12-20T01:20:45.304Z,75
2022-12-20T01:21:52.364Z,74
2022-12-20T01:22:58.913Z,74
2022-12-20T01:24:06.037Z,74
2022-12-20T01:25:13.216Z,75
2022-12-20T01:26:20.263Z,75
2022-12-20T01:27:27.395Z,75
2022-12-20T01:28:33.948Z,75
2022-12-20T01:29:41.063Z,75
2022-12-20T01:30:48.226Z,75
2022-12-20T01:31:55.382Z,75
2022-12-20T01:33:02.404Z,75
2022-12-20T01:34:08.968Z,74
2022-12-20T01:35:16.064Z,74
2022-12-20T01:36:23.159Z,74
2022-12-20T01:37:30.391Z,74
2022-12-20T01:38:37.380Z,74
2022-12-20T01:39:44.534Z,74
2022-12-20T01:40:51.136Z,74
2022-12-20T01:41:58.131Z,74
2022-12-20T01:43:05.286Z,74
2022-12-20T01:44:12.372Z,74
2022-12-20T01:45:18.973Z,73
2022-12-20T01:47:33.298Z,73
2022-12-20T01:48:40.283Z,73
2022-12-20T01:49:47.381Z,73
2022-12-20T01:50:54.005Z,73
2022-12-20T01:52:01.100Z,73
2022-12-20T01:53:08.145Z,73
2022-12-20T01:54:15.339Z,73
2022-12-20T01:55:22.397Z,73
2022-12-20T01:56:28.987Z,73
2022-12-20T01:57:36.150Z,73
2022-12-20T01:58:43.223Z,73
2022-12-20T01:59:50.313Z,73
2022-12-20T02:00:57.476Z,73
2022-12-20T02:02:04.243Z,73
2022-12-20T02:03:11.175Z,73
2022-12-20T02:04:18.206Z,73
2022-12-20T02:05:25.338Z,73
2022-12-20T02:06:32.459Z,73
2022-12-20T02:07:39.106Z,73
2022-12-20T02:08:46.144Z,73
2022-12-20T02:09:53.236Z,73
2022-12-20T02:11:00.323Z,73
2022-12-20T02:12:07.474Z,73
2022-12-20T02:13:14.032Z,73
2022-12-20T02:14:21.187Z,73
2022-12-20T02:15:28.191Z,73
2022-12-20T02:16:35.525Z,74
2022-12-20T02:17:42.481Z,74
2022-12-20T02:18:49.031Z,74
2022-12-20T02:19:56.129Z,74
2022-12-20T02:22:10.367Z,75
2022-12-20T02:23:17.405Z,75
2022-12-20T02:24:24.068Z,75
2022-12-20T02:25:31.159Z,75
2022-12-20T02:26:38.291Z,75
2022-12-20T02:28:52.467Z,75
2022-12-20T02:29:59.045Z,75
2022-12-20T02:31:06.142Z,75
2022-12-20T02:32:13.411Z,75
2022-12-20T02:33:20.372Z,75
2022-12-20T02:34:27.472Z,74
2022-12-20T02:35:34.076Z,74
2022-12-20T02:36:41.717Z,74
2022-12-20T02:37:48.210Z,74
2022-12-20T02:38:55.339Z,73
2022-12-20T02:40:01.978Z,73
2022-12-20T02:41:09.007Z,73
2022-12-20T02:42:16.143Z,73
2022-12-20T02:43:23.246Z,73
2022-12-20T02:44:30.392Z,73
2022-12-20T02:45:36.962Z,73
2022-12-20T02:46:44.090Z,73
2022-12-20T02:47:51.213Z,72
2022-12-20T02:48:58.284Z,72
2022-12-20T02:50:05.395Z,72
2022-12-20T02:51:11.955Z,72
2022-12-20T02:52:19.072Z,72
2022-12-20T02:53:26.217Z,72
2022-12-20T02:54:35.678Z,72
2022-12-20T02:55:40.572Z,72
2022-12-20T02:56:47.035Z,72
2022-12-20T02:57:59.981Z,73
2022-12-20T02:59:01.199Z,73
2022-12-20T03:00:08.244Z,73
2022-12-20T03:01:15.392Z,73
2022-12-20T03:02:22.143Z,73
2022-12-20T03:03:29.190Z,73
2022-12-20T03:04:36.179Z,73
2022-12-20T03:05:43.295Z,73
2022-12-20T03:06:50.475Z,73
2022-12-20T03:10:11.185Z,73
2022-12-20T03:11:18.292Z,73
2022-12-20T03:12:25.523Z,73
2022-12-20T03:13:32.039Z,73
2022-12-20T03:14:39.119Z,73
2022-12-20T03:15:46.211Z,73
2022-12-20T03:16:53.481Z,73
2022-12-20T03:18:00.431Z,73
2022-12-20T03:19:06.981Z,73
2022-12-20T03:20:14.114Z,73
2022-12-20T03:21:21.241Z,73
2022-12-20T03:22:28.316Z,73
2022-12-20T03:23:35.470Z,73
2022-12-20T03:25:49.075Z,73
2022-12-20T03:26:56.285Z,73
2022-12-20T03:28:03.344Z,73
2022-12-20T03:29:10.434Z,73
2022-12-20T03:30:17.015Z,73
2022-12-20T03:31:24.207Z,73
2022-12-20T03:32:31.405Z,73
2022-12-20T03:33:38.333Z,73
2022-12-20T03:34:45.475Z,73
2022-12-20T03:35:52.000Z,73
2022-12-20T03:36:59.178Z,73
2022-12-20T03:38:06.279Z,73
2022-12-20T03:39:13.348Z,73
2022-12-20T03:40:20.476Z,73
2022-12-20T03:41:27.030Z,73
2022-12-20T03:42:34.214Z,73
2022-12-20T03:43:41.221Z,73
2022-12-20T03:44:48.406Z,73
2022-12-20T03:45:54.981Z,73
2022-12-20T03:47:01.998Z,73
2022-12-20T03:48:09.178Z,73
2022-12-20T03:49:16.240Z,73
2022-12-20T03:51:29.927Z,73
2022-12-20T03:52:37.030Z,73
2022-12-20T03:53:44.289Z,73
2022-12-20T03:54:51.279Z,73
2022-12-20T03:55:58.328Z,73
2022-12-20T03:57:04.936Z,73
2022-12-20T03:58:12.164Z,73
2022-12-20T03:59:19.209Z,73
2022-12-20T04:00:26.309Z,73
2022-12-20T04:01:33.497Z,73
2022-12-20T04:02:40.211Z,74
2022-12-20T04:03:47.276Z,74
2022-12-20T04:04:54.240Z,74
2022-12-20T04:06:01.291Z,74
2022-12-20T04:07:08.362Z,74
2022-12-20T04:08:14.984Z,74
2022-12-20T04:09:22.089Z,74
2022-12-20T04:10:29.271Z,74
2022-12-20T04:11:36.313Z,74
2022-12-20T04:12:43.374Z,74
2022-12-20T04:13:49.932Z,74
2022-12-20T04:14:57.027Z,74
2022-12-20T04:16:04.333Z,74
2022-12-20T04:17:11.330Z,74
2022-12-20T04:18:18.367Z,74
2022-12-20T04:19:25.004Z,74
2022-12-20T04:20:32.323Z,74
2022-12-20T04:21:39.254Z,74
2022-12-20T04:22:46.286Z,75
2022-12-20T04:23:53.380Z,75
2022-12-20T04:24:59.962Z,75
2022-12-20T04:26:07.049Z,75
2022-12-20T04:27:14.235Z,75
2022-12-20T04:29:28.413Z,76
2022-12-20T04:30:35.020Z,76
2022-12-20T04:32:49.151Z,76
2022-12-20T04:33:56.300Z,76
2022-12-20T04:35:03.418Z,76
2022-12-20T04:37:17.111Z,76
2022-12-20T04:38:24.208Z,77
2022-12-20T04:39:31.359Z,77
2022-12-20T04:40:38.431Z,77
2022-12-20T04:41:45.040Z,77
2022-12-20T04:42:52.144Z,77
2022-12-20T04:43:59.250Z,77
2022-12-20T04:45:06.485Z,77
2022-12-20T04:46:13.456Z,77
2022-12-20T04:47:19.994Z,77
2022-12-20T04:48:55.066Z,77
2022-12-20T04:49:34.216Z,77
2022-12-20T04:50:41.371Z,77
2022-12-20T04:51:48.402Z,77
2022-12-20T04:52:55.014Z,77
2022-12-20T04:54:02.178Z,78
2022-12-20T04:55:09.223Z,78
2022-12-20T04:56:16.424Z,78
2022-12-20T04:57:23.537Z,78
2022-12-20T04:58:30.018Z,78
2022-12-20T04:59:37.102Z,78
2022-12-20T05:00:44.275Z,78
2022-12-20T05:01:51.512Z,78
2022-12-20T05:02:58.703Z,78
2022-12-20T05:04:05.125Z,78
2022-12-20T05:05:12.184Z,78
2022-12-20T05:06:19.258Z,78
2022-12-20T05:07:26.425Z,78
2022-12-20T05:08:33.473Z,78
2022-12-20T05:09:40.038Z,78
2022-12-20T05:10:47.112Z,78
2022-12-20T05:11:54.264Z,78
2022-12-20T05:13:07.252Z,78
2022-12-20T05:14:07.949Z,79
2022-12-20T05:15:15.051Z,79
2022-12-20T05:16:22.256Z,79
2022-12-20T05:17:29.288Z,79
2022-12-20T05:18:36.420Z,79
2022-12-20T05:19:42.978Z,79
2022-12-20T05:20:50.052Z,79
2022-12-20T05:21:57.153Z,79
2022-12-20T05:23:04.283Z,79
2022-12-20T05:24:11.401Z,79
2022-12-20T05:25:17.931Z,79
2022-12-20T05:26:25.064Z,79
2022-12-20T05:27:32.258Z,79
2022-12-20T05:28:39.261Z,79
2022-12-20T05:29:46.425Z,79
2022-12-20T05:30:53.014Z,79
2022-12-20T05:33:07.334Z,79
2022-12-20T05:34:14.324Z,78
2022-12-20T05:35:21.414Z,78
2022-12-20T05:36:27.941Z,79
2022-12-20T05:37:35.169Z,79
2022-12-20T05:38:42.238Z,79
2022-12-20T05:39:49.296Z,78
2022-12-20T05:40:56.448Z,78
2022-12-20T05:42:03.063Z,78
2022-12-20T05:43:10.103Z,78
2022-12-20T05:44:17.193Z,78
2022-12-20T05:45:24.333Z,78
2022-12-20T05:46:31.467Z,78
2022-12-20T05:47:38.024Z,79
2022-12-20T05:48:45.134Z,79
2022-12-20T05:49:52.247Z,79
2022-12-20T05:50:59.311Z,79
2022-12-20T05:52:06.465Z,79
2022-12-20T05:53:13.513Z,79
2022-12-20T05:54:20.121Z,79
2022-12-20T05:55:27.199Z,79
2022-12-20T05:56:34.348Z,79
2022-12-20T05:57:41.480Z,79
2022-12-20T05:58:48.006Z,79
2022-12-20T05:59:55.157Z,79
2022-12-20T06:01:02.226Z,79
2022-12-20T06:02:09.541Z,79
2022-12-20T06:03:16.554Z,79
2022-12-20T06:05:30.101Z,79
2022-12-20T06:06:37.219Z,79
2022-12-20T06:07:44.424Z,79
2022-12-20T06:08:51.457Z,79
2022-12-20T06:09:58.015Z,79
2022-12-20T06:11:05.199Z,79
2022-12-20T06:12:11.789Z,79
2022-12-20T06:13:19.314Z,79
2022-12-20T06:14:26.467Z,79
2022-12-20T06:15:33.032Z,79
2022-12-20T06:16:40.218Z,79
2022-12-20T06:17:47.223Z,79
2022-12-20T06:18:54.372Z,79
2022-12-20T06:20:01.434Z,79
2022-12-20T06:21:08.112Z,79
2022-12-20T06:22:15.183Z,79
2022-12-20T06:23:22.242Z,79
2022-12-20T06:24:29.359Z,79
2022-12-20T06:25:36.504Z,79
2022-12-20T06:26:43.083Z,79
2022-12-20T06:27:50.108Z,79
2022-12-20T06:28:57.269Z,79
2022-12-20T06:30:04.418Z,79
2022-12-20T06:31:11.563Z,79
2022-12-20T06:32:18.197Z,79
2022-12-20T06:33:25.262Z,79
2022-12-20T06:34:32.304Z,79
2022-12-20T06:36:45.974Z,79
2022-12-20T06:37:53.055Z,79
2022-12-20T06:39:04.541Z,79
2022-12-20T06:40:07.244Z,79
2022-12-20T06:41:14.406Z,79
2022-12-20T06:42:21.557Z,79
2022-12-20T06:43:28.085Z,79
2022-12-20T06:44:35.791Z,79
2022-12-20T06:45:42.697Z,79
2022-12-20T06:46:49.365Z,79
2022-12-20T06:47:56.007Z,79
2022-12-20T06:49:03.054Z,79
2022-12-20T06:50:10.208Z,79
2022-12-20T06:51:17.281Z,79
2022-12-20T06:52:24.433Z,79
2022-12-20T06:53:30.996Z,79
2022-12-20T06:54:38.107Z,79
2022-12-20T06:55:45.213Z,79
2022-12-20T06:56:52.334Z,79
2022-12-20T06:57:59.429Z,79
2022-12-20T06:59:05.996Z,79
2022-12-20T07:00:13.087Z,79
2022-12-20T07:01:20.319Z,79
2022-12-20T07:02:27.854Z,79
2022-12-20T07:03:34.568Z,78
2022-12-20T07:04:41.547Z,79
2022-12-20T07:05:48.079Z,79
2022-12-20T07:06:55.242Z,79
2022-12-20T07:08:02.344Z,79
2022-12-20T07:09:09.378Z,79
2022-12-20T07:10:16.014Z,79
2022-12-20T07:11:23.099Z,79
2022-12-20T07:12:30.290Z,79
2022-12-20T07:13:37.316Z,79
2022-12-20T07:14:44.463Z,79
2022-12-20T07:15:51.008Z,79
2022-12-20T07:16:58.257Z,79
2022-12-20T07:18:05.242Z,79
2022-12-20T07:19:12.376Z,79
2022-12-20T07:20:19.396Z,79
2022-12-20T07:21:26.143Z,79
2022-12-20T07:22:34.735Z,79
2022-12-20T07:23:40.271Z,79
2022-12-20T07:24:47.337Z,79
2022-12-20T07:25:54.452Z,79
2022-12-20T07:27:00.986Z,79
2022-12-20T07:28:08.216Z,79
2022-12-20T07:29:16.225Z,79
2022-12-20T07:30:22.328Z,79
2022-12-20T07:31:29.456Z,79
2022-12-20T07:33:43.207Z,79
2022-12-20T07:34:49.714Z,79
2022-12-20T07:34:50.230Z,79
2022-12-20T07:35:57.379Z,79
2022-12-20T07:37:04.458Z,79
2022-12-20T07:38:11.090Z,79
2022-12-20T07:40:25.282Z,79
2022-12-20T07:41:32.409Z,78
2022-12-20T07:42:42.910Z,78
2022-12-20T07:43:46.067Z,78
2022-12-20T07:44:53.182Z,78
2022-12-20T07:46:00.505Z,78
2022-12-20T07:47:07.320Z,78
2022-12-20T07:48:17.873Z,78
2022-12-20T07:49:21.072Z,78
2022-12-20T07:50:28.193Z,78
2022-12-20T07:51:35.298Z,78
2022-12-20T07:52:42.454Z,78
2022-12-20T07:53:49.431Z,78
2022-12-20T07:54:56.100Z,78
2022-12-20T07:56:03.199Z,78
2022-12-20T07:57:10.269Z,78
2022-12-20T07:58:17.875Z,78
2022-12-20T07:59:24.002Z,78
2022-12-20T08:00:31.103Z,78
2022-12-20T08:01:38.349Z,78
2022-12-20T08:02:45.629Z,78
2022-12-20T08:03:52.596Z,78
2022-12-20T08:04:58.943Z,78
2022-12-20T08:06:06.079Z,78
2022-12-20T08:07:13.185Z,78
2022-12-20T08:08:20.314Z,78
2022-12-20T08:09:27.358Z,78
2022-12-20T08:10:33.993Z,78
2022-12-20T08:11:41.115Z,77
2022-12-20T08:12:48.214Z,77
2022-12-20T08:13:58.094Z,77
2022-12-20T08:15:02.410Z,77
2022-12-20T08:16:08.981Z,77
2022-12-20T08:17:16.241Z,77
2022-12-20T08:18:23.225Z,77
2022-12-20T08:19:32.599Z,77
2022-12-20T08:20:37.411Z,77
2022-12-20T08:21:44.035Z,77
2022-12-20T08:22:51.135Z,77
2022-12-20T08:23:58.161Z,77
2022-12-20T08:25:05.350Z,77
2022-12-20T08:26:12.451Z,77
2022-12-20T08:27:19.019Z,76
2022-12-20T08:28:26.154Z,76
2022-12-20T08:29:33.253Z,76
2022-12-20T08:30:40.379Z,76
2022-12-20T08:31:50.403Z,76
2022-12-20T08:32:54.096Z,76
2022-12-20T08:34:01.105Z,76
2022-12-20T08:35:08.229Z,76
2022-12-20T08:36:15.336Z,76
2022-12-20T08:37:22.473Z,76
2022-12-20T08:38:28.995Z,76
2022-12-20T08:39:36.148Z,75
2022-12-20T08:40:43.261Z,75
2022-12-20T08:41:50.345Z,75
2022-12-20T08:44:04.055Z,75
2022-12-20T08:45:11.225Z,75
2022-12-20T08:46:18.240Z,75
2022-12-20T08:47:25.374Z,75
2022-12-20T08:48:32.431Z,75
2022-12-20T08:49:42.524Z,75
2022-12-20T08:50:46.271Z,76
2022-12-20T08:51:53.272Z,76
2022-12-20T08:53:00.471Z,76
2022-12-20T08:54:07.449Z,76
2022-12-20T08:55:14.082Z,76
2022-12-20T08:56:21.309Z,76
2022-12-20T08:57:27.681Z,75
2022-12-20T08:58:35.368Z,75
2022-12-20T08:59:42.511Z,75
2022-12-20T09:01:57.242Z,75
2022-12-20T09:03:03.546Z,75
2022-12-20T09:04:10.365Z,75
2022-12-20T09:05:17.452Z,75
2022-12-20T09:06:24.110Z,75
2022-12-20T09:07:31.190Z,75
2022-12-20T09:08:38.296Z,75
2022-12-20T09:09:45.422Z,75
2022-12-20T09:10:51.959Z,76
2022-12-20T09:11:59.045Z,76
2022-12-20T09:13:06.200Z,76
2022-12-20T09:14:13.286Z,76
2022-12-20T09:15:20.426Z,76
2022-12-20T09:16:27.016Z,76
2022-12-20T09:17:34.169Z,76
2022-12-20T09:18:41.206Z,76
2022-12-20T09:19:48.280Z,76
2022-12-20T09:20:55.447Z,76
2022-12-20T09:22:02.095Z,76
2022-12-20T09:23:09.106Z,76
2022-12-20T09:24:16.203Z,76
2022-12-20T09:25:23.316Z,77
2022-12-20T09:26:30.439Z,77
2022-12-20T09:27:37.505Z,76
2022-12-20T09:28:44.119Z,76
2022-12-20T09:29:51.234Z,76
2022-12-20T09:30:58.352Z,76
2022-12-20T09:32:05.426Z,76
2022-12-20T09:33:12.197Z,76
2022-12-20T09:34:19.114Z,76
2022-12-20T09:35:26.228Z,76
2022-12-20T09:36:33.288Z,76
2022-12-20T09:37:40.387Z,76
2022-12-20T09:38:46.988Z,75
2022-12-20T09:39:54.159Z,76
2022-12-20T09:41:01.226Z,75
2022-12-20T09:42:08.274Z,76
2022-12-20T09:43:15.518Z,76
2022-12-20T09:44:22.041Z,76
2022-12-20T09:45:29.156Z,76
2022-12-20T09:47:43.312Z,76
2022-12-20T09:48:50.445Z,76
2022-12-20T09:49:57.013Z,76
2022-12-20T09:51:04.150Z,76
2022-12-20T09:52:11.218Z,76
2022-12-20T09:53:18.807Z,76
2022-12-20T09:54:25.463Z,76
2022-12-20T09:55:32.050Z,77
2022-12-20T09:56:39.086Z,77
2022-12-20T09:57:46.232Z,77
2022-12-20T09:58:53.366Z,77
2022-12-20T10:00:00.433Z,77
2022-12-20T10:01:06.971Z,77
2022-12-20T10:02:44.547Z,77
2022-12-20T10:03:21.520Z,77
2022-12-20T10:04:28.596Z,77
2022-12-20T10:05:41.257Z,77
2022-12-20T10:06:42.042Z,77
2022-12-20T10:07:49.180Z,77
2022-12-20T10:08:56.303Z,77
2022-12-20T10:10:03.378Z,77
2022-12-20T10:11:10.482Z,77
2022-12-20T10:12:16.995Z,77
2022-12-20T10:13:24.198Z,76
2022-12-20T10:14:31.283Z,76
2022-12-20T10:16:45.669Z,76
2022-12-20T10:17:52.168Z,76
2022-12-20T10:18:59.158Z,76
2022-12-20T10:20:06.288Z,76
2022-12-20T10:21:13.384Z,76
2022-12-20T10:22:19.962Z,76
2022-12-20T10:23:32.996Z,76
2022-12-20T10:24:35.928Z,76
2022-12-20T10:25:41.270Z,76
2022-12-20T10:26:48.353Z,76
2022-12-20T10:27:55.006Z,76
2022-12-20T10:30:09.125Z,76
2022-12-20T10:31:16.529Z,76
2022-12-20T10:32:23.467Z,76
2022-12-20T10:33:29.933Z,76
2022-12-20T10:34:39.913Z,76
2022-12-20T10:35:44.129Z,76
2022-12-20T10:36:51.309Z,77
2022-12-20T10:38:06.828Z,77
2022-12-20T10:39:05.472Z,77
2022-12-20T10:40:12.096Z,77
2022-12-20T10:41:22.324Z,77
2022-12-20T10:42:26.292Z,77
2022-12-20T10:43:33.386Z,77
2022-12-20T10:44:39.948Z,78
2022-12-20T10:45:47.036Z,78
2022-12-20T10:46:54.237Z,78
2022-12-20T10:48:01.394Z,78
2022-12-20T10:49:08.364Z,78
2022-12-20T10:51:22.144Z,79
2022-12-20T10:52:29.257Z,79
2022-12-20T10:53:36.299Z,79
2022-12-20T10:54:43.489Z,79
2022-12-20T10:55:49.999Z,80
2022-12-20T10:56:57.133Z,80
2022-12-20T10:58:04.251Z,80
2022-12-20T10:59:11.297Z,80
2022-12-20T11:00:18.408Z,80
2022-12-20T11:01:24.771Z,80
2022-12-20T11:02:40.118Z,80
2022-12-20T11:03:39.373Z,80
2022-12-20T11:04:46.349Z,80
2022-12-20T11:05:53.481Z,80
2022-12-20T11:07:00.079Z,80
2022-12-20T11:08:36.606Z,80
2022-12-20T11:09:14.860Z,81
2022-12-20T11:10:21.498Z,81
2022-12-20T11:11:28.451Z,81
2022-12-20T11:12:35.065Z,81
2022-12-20T11:13:42.170Z,81
2022-12-20T11:14:49.245Z,81
2022-12-20T11:15:56.409Z,81
2022-12-20T11:17:03.424Z,81
2022-12-20T11:18:10.046Z,81
2022-12-20T11:19:17.086Z,81
2022-12-20T11:20:24.271Z,81
2022-12-20T11:21:31.327Z,81
2022-12-20T11:22:38.458Z,81
2022-12-20T11:23:45.022Z,81
2022-12-20T11:24:52.130Z,81
2022-12-20T11:25:59.215Z,81
2022-12-20T11:27:09.320Z,81
2022-12-20T11:28:13.539Z,81
2022-12-20T11:29:20.028Z,82
2022-12-20T11:30:27.149Z,82
2022-12-20T11:31:34.365Z,81
2022-12-20T11:32:48.188Z,81
2022-12-20T11:33:48.549Z,81
2022-12-20T11:34:55.143Z,81
2022-12-20T11:36:02.200Z,81
2022-12-20T11:37:09.270Z,81
2022-12-20T11:38:16.418Z,81
2022-12-20T11:39:23.507Z,81
2022-12-20T11:40:30.003Z,81
2022-12-20T11:41:37.210Z,81
2022-12-20T11:44:23.506Z,81
2022-12-20T11:45:06.951Z,81
2022-12-20T11:46:05.051Z,81
2022-12-20T11:47:12.266Z,81
2022-12-20T11:48:19.416Z,81
2022-12-20T11:49:26.429Z,81
2022-12-20T11:50:33.528Z,81
2022-12-20T11:51:40.061Z,81
2022-12-20T11:52:47.230Z,80
2022-12-20T11:55:01.412Z,80
2022-12-20T11:56:07.972Z,80
2022-12-20T11:58:22.272Z,80
2022-12-20T11:59:29.352Z,80
2022-12-20T12:00:36.433Z,80
2022-12-20T12:01:43.104Z,80
2022-12-20T12:02:56.471Z,80
2022-12-20T12:03:57.189Z,80
2022-12-20T12:05:04.377Z,80
2022-12-20T12:06:11.351Z,80
2022-12-20T12:07:17.999Z,80
2022-12-20T12:08:25.079Z,80
2022-12-20T12:09:32.191Z,80
2022-12-20T12:10:39.285Z,80
2022-12-20T12:12:08.162Z,80
2022-12-20T12:12:54.067Z,80
2022-12-20T12:14:00.114Z,80
2022-12-20T12:15:11.291Z,80
2022-12-20T12:16:14.322Z,80
2022-12-20T12:17:21.396Z,80
2022-12-20T12:18:27.997Z,80
2022-12-20T12:19:35.106Z,80
2022-12-20T12:20:42.242Z,79
2022-12-20T12:21:49.316Z,79
2022-12-20T12:22:56.483Z,79
2022-12-20T12:25:10.084Z,79
2022-12-20T12:26:17.188Z,79
2022-12-20T12:27:24.318Z,79
2022-12-20T12:28:31.481Z,79
2022-12-20T12:29:38.006Z,79
2022-12-20T12:30:45.156Z,79
2022-12-20T12:31:52.336Z,79
2022-12-20T12:32:59.397Z,79
2022-12-20T12:34:06.495Z,79
2022-12-20T12:35:13.570Z,79
2022-12-20T12:36:20.145Z,79
2022-12-20T12:37:27.255Z,79
2022-12-20T12:38:34.400Z,78
2022-12-20T12:39:41.432Z,78
2022-12-20T12:40:52.573Z,78
2022-12-20T12:41:55.137Z,78
2022-12-20T12:43:02.345Z,78
2022-12-20T12:44:09.364Z,78
2022-12-20T12:45:16.475Z,78
2022-12-20T12:46:23.095Z,78
2022-12-20T12:47:30.133Z,78
2022-12-20T12:48:37.263Z,77
2022-12-20T12:49:44.396Z,77
2022-12-20T12:50:51.433Z,77
2022-12-20T12:51:58.056Z,77
2022-12-20T12:53:05.222Z,77
2022-12-20T12:54:12.321Z,77
2022-12-20T12:55:19.368Z,77
2022-12-20T12:56:43.113Z,77
2022-12-20T12:58:46.423Z,77
2022-12-20T12:59:47.273Z,77
2022-12-20T13:00:54.435Z,77
2022-12-20T13:02:01.787Z,77
2022-12-20T13:03:08.226Z,77
2022-12-20T13:04:15.204Z,77
2022-12-20T13:06:29.371Z,78
2022-12-20T13:07:36.567Z,78
2022-12-20T13:08:43.108Z,78
2022-12-20T13:09:50.219Z,78
2022-12-20T13:10:57.290Z,79
2022-12-20T13:12:08.230Z,79
2022-12-20T13:13:11.565Z,79
2022-12-20T13:14:18.089Z,79
2022-12-20T13:15:25.190Z,80
2022-12-20T13:17:10.176Z,80
2022-12-20T13:17:39.459Z,80
2022-12-20T13:18:46.027Z,81
2022-12-20T13:19:53.068Z,81
2022-12-20T13:21:00.173Z,81
2022-12-20T13:22:07.301Z,81
2022-12-20T13:23:14.449Z,82
2022-12-20T13:24:21.027Z,82
2022-12-20T13:26:35.209Z,82
2022-12-20T13:27:42.369Z,82
2022-12-20T13:28:49.429Z,82
2022-12-20T13:29:56.034Z,82
2022-12-20T13:31:03.196Z,82
2022-12-20T13:32:10.208Z,82
2022-12-20T13:33:17.296Z,82
2022-12-20T13:34:24.463Z,82
2022-12-20T13:35:31.061Z,82
2022-12-20T13:36:38.099Z,82
2022-12-20T13:37:48.300Z,83
2022-12-20T13:38:52.322Z,83
2022-12-20T13:39:59.393Z,83
2022-12-20T13:41:06.008Z,83
2022-12-20T13:42:13.107Z,83
2022-12-20T13:43:20.279Z,83
2022-12-20T13:44:27.342Z,83
2022-12-20T13:45:34.519Z,83
2022-12-20T13:47:48.182Z,83
2022-12-20T13:48:55.277Z,83
2022-12-20T13:50:02.400Z,83
2022-12-20T13:51:09.443Z,83
2022-12-20T13:52:16.062Z,83
2022-12-20T13:53:23.208Z,83
2022-12-20T13:54:30.267Z,83
2022-12-20T13:55:37.302Z,83
2022-12-20T13:56:44.486Z,83
2022-12-20T13:57:51.022Z,83
2022-12-20T13:58:58.147Z,83
2022-12-20T14:00:07.434Z,83
2022-12-20T14:02:19.636Z,83
2022-12-20T14:03:26.237Z,83
2022-12-20T14:04:36.037Z,83
2022-12-20T14:05:40.284Z,83
2022-12-20T14:06:47.366Z,83
2022-12-20T14:07:54.523Z,83
2022-12-20T14:09:01.050Z,83
2022-12-20T14:10:08.115Z,83
2022-12-20T14:11:15.300Z,83
2022-12-20T14:12:28.559Z,83
2022-12-20T14:13:29.543Z,83
2022-12-20T14:14:36.096Z,83
2022-12-20T14:15:43.153Z,83
2022-12-20T14:16:50.363Z,83
2022-12-20T14:17:57.459Z,83
2022-12-20T14:19:04.545Z,82
2022-12-20T14:20:11.639Z,82
2022-12-20T14:21:18.169Z,82
2022-12-20T14:22:25.320Z,82
2022-12-20T14:23:32.445Z,82
2022-12-20T14:24:39.515Z,82
2022-12-20T14:25:46.185Z,82
2022-12-20T14:26:53.211Z,82
2022-12-20T14:29:07.583Z,82
2022-12-20T14:30:14.518Z,82
2022-12-20T14:31:21.119Z,82
2022-12-20T14:32:28.173Z,82
2022-12-20T14:33:35.335Z,82
2022-12-20T14:34:42.387Z,82
2022-12-20T14:35:49.530Z,82
2022-12-20T14:36:56.270Z,82
2022-12-20T14:38:03.300Z,82
2022-12-20T14:39:10.317Z,82
2022-12-20T14:40:17.407Z,82
2022-12-20T14:41:24.017Z,82
2022-12-20T14:42:31.095Z,82
2022-12-20T14:43:38.213Z,82
2022-12-20T14:44:45.354Z,82
2022-12-20T14:45:52.464Z,82
2022-12-20T14:46:59.081Z,82
2022-12-20T14:48:06.195Z,82
2022-12-20T14:49:13.251Z,82
2022-12-20T14:50:20.326Z,82
2022-12-20T14:51:27.380Z,82
2022-12-20T14:52:34.046Z,82
2022-12-20T14:55:08.477Z,83
2022-12-20T14:55:55.356Z,83
2022-12-20T14:57:02.415Z,83
2022-12-20T14:58:09.599Z,83
2022-12-20T14:59:16.176Z,83
2022-12-20T15:00:23.255Z,83
2022-12-20T15:01:30.442Z,83
2022-12-20T15:02:37.703Z,84
2022-12-20T15:03:44.313Z,84
2022-12-20T15:05:58.188Z,84
2022-12-20T15:07:05.384Z,84
2022-12-20T15:08:12.563Z,84
2022-12-20T15:10:26.182Z,84
2022-12-20T15:11:33.265Z,84
2022-12-20T15:12:42.431Z,84
2022-12-20T15:13:47.467Z,84
2022-12-20T15:14:54.025Z,84
2022-12-20T15:16:01.198Z,84
2022-12-20T15:17:08.195Z,84
2022-12-20T15:18:15.437Z,84
2022-12-20T15:19:22.513Z,84
2022-12-20T15:20:29.013Z,84
2022-12-20T15:21:36.212Z,84
2022-12-20T15:22:43.315Z,84
2022-12-20T15:23:50.981Z,84
2022-12-20T15:24:57.429Z,84
2022-12-20T15:26:04.047Z,84
2022-12-20T15:27:11.209Z,84
2022-12-20T15:28:18.262Z,84
2022-12-20T15:29:25.420Z,84
2022-12-20T15:30:32.494Z,84
2022-12-20T15:31:39.127Z,84
2022-12-20T15:32:55.110Z,84
2022-12-20T15:33:53.352Z,84
2022-12-20T15:35:00.361Z,84
2022-12-20T15:36:07.573Z,84
2022-12-20T15:37:17.959Z,84
2022-12-20T15:38:34.611Z,84
2022-12-20T15:39:28.292Z,84
2022-12-20T15:40:35.416Z,84
2022-12-20T15:41:42.537Z,84
2022-12-20T15:42:49.137Z,84
2022-12-20T15:43:56.237Z,84
2022-12-20T15:45:03.380Z,85
2022-12-20T15:46:10.523Z,85
2022-12-20T15:47:17.570Z,84
2022-12-20T15:48:24.100Z,85
2022-12-20T15:49:31.241Z,85
2022-12-20T15:51:45.444Z,85
2022-12-20T15:52:52.524Z,85
2022-12-20T15:53:59.109Z,85
2022-12-20T15:55:06.222Z,85
2022-12-20T15:56:13.338Z,85
2022-12-20T15:57:20.477Z,84
2022-12-20T15:58:27.553Z,84
2022-12-20T16:00:00.258Z,85
2022-12-20T16:00:41.266Z,85
2022-12-20T16:01:48.660Z,85
2022-12-20T16:02:55.708Z,85
2022-12-20T16:04:02.717Z,85
2022-12-20T16:05:09.124Z,85
2022-12-20T16:06:16.295Z,85
2022-12-20T16:07:23.336Z,85
2022-12-20T16:09:37.579Z,85
2022-12-20T16:10:44.190Z,85
2022-12-20T16:11:51.216Z,85
2022-12-20T16:12:58.342Z,85
2022-12-20T16:14:05.456Z,85
2022-12-20T16:15:11.988Z,85
2022-12-20T16:16:19.206Z,85
2022-12-20T16:17:26.301Z,85
2022-12-20T16:18:34.882Z,85
2022-12-20T16:19:40.509Z,85
2022-12-20T16:20:47.057Z,85
2022-12-20T16:23:01.211Z,85
2022-12-20T16:24:08.418Z,85
2022-12-20T16:25:19.977Z,85
2022-12-20T16:26:22.065Z,85
2022-12-20T16:27:29.658Z,85
2022-12-20T16:28:36.384Z,85
2022-12-20T16:29:43.378Z,85
2022-12-20T16:30:53.369Z,85
2022-12-20T16:33:04.234Z,85
2022-12-20T16:34:11.253Z,85
2022-12-20T16:35:18.340Z,85
2022-12-20T16:36:25.540Z,85
2022-12-20T16:37:37.264Z,84
2022-12-20T16:38:39.274Z,84
2022-12-20T16:39:46.334Z,84
2022-12-20T16:40:53.356Z,84
2022-12-20T16:42:00.482Z,84